sensor_id;sensor_type;location;lat;lon;timestamp;P1;durP1;ratioP1;P2;durP2;ratioP2
54121;SDS011;40029;58.708;50.190;2023-04-29T00:01:26;5.57;;;3.90;;
54121;SDS011;40029;58.708;50.190;2023-04-29T00:03:57;9.48;;;4.30;;
54121;SDS011;40029;58.708;50.190;2023-04-29T00:06:28;5.72;;;4.20;;
54121;SDS011;40029;58.708;50.190;2023-04-29T00:09:00;7.90;;;4.82;;
54121;SDS011;40029;58.708;50.190;2023-04-29T00:11:31;5.78;;;4.13;;
54121;SDS011;40029;58.708;50.190;2023-04-29T00:14:02;4.82;;;3.97;;
54121;SDS011;40029;58.708;50.190;2023-04-29T00:16:33;6.20;;;4.20;;
54121;SDS011;40029;58.708;50.190;2023-04-29T00:19:04;7.78;;;4.65;;
54121;SDS011;40029;58.708;50.190;2023-04-29T00:21:35;4.10;;;3.22;;
54121;SDS011;40029;58.708;50.190;2023-04-29T00:24:07;5.75;;;3.20;;
54121;SDS011;40029;58.708;50.190;2023-04-29T00:26:38;4.68;;;3.40;;
54121;SDS011;40029;58.708;50.190;2023-04-29T00:29:11;5.75;;;3.33;;
54121;SDS011;40029;58.708;50.190;2023-04-29T00:31:42;5.53;;;3.63;;
54121;SDS011;40029;58.708;50.190;2023-04-29T00:34:13;5.47;;;2.85;;
54121;SDS011;40029;58.708;50.190;2023-04-29T00:36:44;5.78;;;3.63;;
54121;SDS011;40029;58.708;50.190;2023-04-29T00:39:15;4.93;;;3.25;;
54121;SDS011;40029;58.708;50.190;2023-04-29T00:41:46;6.03;;;4.07;;
54121;SDS011;40029;58.708;50.190;2023-04-29T00:44:18;6.68;;;3.88;;
54121;SDS011;40029;58.708;50.190;2023-04-29T00:46:49;6.45;;;4.55;;
54121;SDS011;40029;58.708;50.190;2023-04-29T00:49:20;14.27;;;7.25;;
54121;SDS011;40029;58.708;50.190;2023-04-29T00:51:52;19.42;;;10.48;;
54121;SDS011;40029;58.708;50.190;2023-04-29T00:54:25;10.65;;;7.18;;
54121;SDS011;40029;58.708;50.190;2023-04-29T00:56:57;9.98;;;6.70;;
54121;SDS011;40029;58.708;50.190;2023-04-29T00:59:29;6.78;;;4.60;;
54121;SDS011;40029;58.708;50.190;2023-04-29T01:02:20;9.23;;;4.22;;
54121;SDS011;40029;58.708;50.190;2023-04-29T01:04:51;5.38;;;3.65;;
54121;SDS011;40029;58.708;50.190;2023-04-29T01:07:26;7.20;;;4.25;;
54121;SDS011;40029;58.708;50.190;2023-04-29T01:10:26;16.13;;;7.07;;
54121;SDS011;40029;58.708;50.190;2023-04-29T01:18:55;8.38;;;5.07;;
54121;SDS011;40029;58.708;50.190;2023-04-29T01:21:44;16.38;;;6.68;;
54121;SDS011;40029;58.708;50.190;2023-04-29T01:24:19;9.10;;;5.35;;
54121;SDS011;40029;58.708;50.190;2023-04-29T01:27:24;14.43;;;6.38;;
54121;SDS011;40029;58.708;50.190;2023-04-29T01:38:59;10.63;;;7.18;;
54121;SDS011;40029;58.708;50.190;2023-04-29T01:41:41;12.63;;;8.07;;
54121;SDS011;40029;58.708;50.190;2023-04-29T01:44:23;12.98;;;8.05;;
54121;SDS011;40029;58.708;50.190;2023-04-29T01:46:57;15.55;;;9.07;;
54121;SDS011;40029;58.708;50.190;2023-04-29T01:49:38;11.10;;;6.50;;
54121;SDS011;40029;58.708;50.190;2023-04-29T01:52:09;8.20;;;6.03;;
54121;SDS011;40029;58.708;50.190;2023-04-29T01:54:42;7.90;;;5.10;;
54121;SDS011;40029;58.708;50.190;2023-04-29T01:57:14;8.80;;;5.35;;
54121;SDS011;40029;58.708;50.190;2023-04-29T01:59:59;4.38;;;3.50;;
54121;SDS011;40029;58.708;50.190;2023-04-29T02:02:52;7.15;;;3.53;;
54121;SDS011;40029;58.708;50.190;2023-04-29T02:05:35;4.35;;;2.95;;
54121;SDS011;40029;58.708;50.190;2023-04-29T02:08:06;4.38;;;3.58;;
54121;SDS011;40029;58.708;50.190;2023-04-29T02:10:50;5.00;;;3.45;;
54121;SDS011;40029;58.708;50.190;2023-04-29T02:13:41;4.43;;;3.08;;
54121;SDS011;40029;58.708;50.190;2023-04-29T02:16:14;6.25;;;3.45;;
54121;SDS011;40029;58.708;50.190;2023-04-29T02:19:04;5.47;;;3.15;;
54121;SDS011;40029;58.708;50.190;2023-04-29T02:21:35;4.45;;;2.42;;
54121;SDS011;40029;58.708;50.190;2023-04-29T02:24:06;7.45;;;3.17;;
54121;SDS011;40029;58.708;50.190;2023-04-29T02:26:37;4.65;;;2.90;;
54121;SDS011;40029;58.708;50.190;2023-04-29T02:29:08;3.22;;;2.42;;
54121;SDS011;40029;58.708;50.190;2023-04-29T02:31:40;5.00;;;2.45;;
54121;SDS011;40029;58.708;50.190;2023-04-29T02:34:11;5.38;;;2.38;;
54121;SDS011;40029;58.708;50.190;2023-04-29T02:36:42;5.97;;;2.65;;
54121;SDS011;40029;58.708;50.190;2023-04-29T02:39:13;4.18;;;2.33;;
54121;SDS011;40029;58.708;50.190;2023-04-29T02:41:44;4.85;;;2.67;;
54121;SDS011;40029;58.708;50.190;2023-04-29T02:44:34;8.30;;;3.10;;
54121;SDS011;40029;58.708;50.190;2023-04-29T02:47:06;3.45;;;2.40;;
54121;SDS011;40029;58.708;50.190;2023-04-29T02:49:37;2.97;;;2.17;;
54121;SDS011;40029;58.708;50.190;2023-04-29T02:52:08;6.20;;;2.67;;
54121;SDS011;40029;58.708;50.190;2023-04-29T02:54:39;5.20;;;2.17;;
54121;SDS011;40029;58.708;50.190;2023-04-29T02:57:11;3.10;;;2.70;;
54121;SDS011;40029;58.708;50.190;2023-04-29T03:00:01;3.75;;;2.83;;
54121;SDS011;40029;58.708;50.190;2023-04-29T03:02:35;7.38;;;2.47;;
54121;SDS011;40029;58.708;50.190;2023-04-29T03:05:07;2.95;;;2.65;;
54121;SDS011;40029;58.708;50.190;2023-04-29T03:07:39;5.95;;;2.80;;
54121;SDS011;40029;58.708;50.190;2023-04-29T03:10:10;12.45;;;3.33;;
54121;SDS011;40029;58.708;50.190;2023-04-29T03:12:42;7.32;;;2.60;;
54121;SDS011;40029;58.708;50.190;2023-04-29T03:15:13;3.97;;;2.53;;
54121;SDS011;40029;58.708;50.190;2023-04-29T03:17:46;6.68;;;3.10;;
54121;SDS011;40029;58.708;50.190;2023-04-29T03:20:17;4.78;;;3.03;;
54121;SDS011;40029;58.708;50.190;2023-04-29T03:22:49;3.88;;;3.20;;
54121;SDS011;40029;58.708;50.190;2023-04-29T03:25:20;4.03;;;3.22;;
54121;SDS011;40029;58.708;50.190;2023-04-29T03:27:51;6.65;;;3.10;;
54121;SDS011;40029;58.708;50.190;2023-04-29T03:30:23;4.72;;;3.35;;
54121;SDS011;40029;58.708;50.190;2023-04-29T03:32:58;3.35;;;2.58;;
54121;SDS011;40029;58.708;50.190;2023-04-29T03:35:48;5.50;;;3.28;;
54121;SDS011;40029;58.708;50.190;2023-04-29T03:38:51;4.22;;;3.20;;
54121;SDS011;40029;58.708;50.190;2023-04-29T03:41:41;3.45;;;2.90;;
54121;SDS011;40029;58.708;50.190;2023-04-29T03:44:12;5.15;;;3.15;;
54121;SDS011;40029;58.708;50.190;2023-04-29T03:46:44;4.18;;;3.20;;
54121;SDS011;40029;58.708;50.190;2023-04-29T03:49:15;2.92;;;2.58;;
54121;SDS011;40029;58.708;50.190;2023-04-29T03:51:47;2.85;;;2.05;;
54121;SDS011;40029;58.708;50.190;2023-04-29T03:54:21;2.60;;;2.30;;
54121;SDS011;40029;58.708;50.190;2023-04-29T03:56:52;4.82;;;2.75;;
54121;SDS011;40029;58.708;50.190;2023-04-29T03:59:23;3.78;;;3.47;;
54121;SDS011;40029;58.708;50.190;2023-04-29T04:01:55;3.35;;;3.05;;
54121;SDS011;40029;58.708;50.190;2023-04-29T04:04:28;5.65;;;3.10;;
54121;SDS011;40029;58.708;50.190;2023-04-29T04:06:59;4.13;;;3.50;;
54121;SDS011;40029;58.708;50.190;2023-04-29T04:09:48;3.75;;;3.35;;
54121;SDS011;40029;58.708;50.190;2023-04-29T04:12:20;4.18;;;2.88;;
54121;SDS011;40029;58.708;50.190;2023-04-29T04:14:51;7.82;;;2.75;;
54121;SDS011;40029;58.708;50.190;2023-04-29T04:17:23;2.78;;;2.38;;
54121;SDS011;40029;58.708;50.190;2023-04-29T04:19:55;3.20;;;2.90;;
54121;SDS011;40029;58.708;50.190;2023-04-29T04:22:26;7.68;;;3.50;;
54121;SDS011;40029;58.708;50.190;2023-04-29T04:25:15;3.55;;;3.25;;
54121;SDS011;40029;58.708;50.190;2023-04-29T04:27:47;3.58;;;2.67;;
54121;SDS011;40029;58.708;50.190;2023-04-29T04:30:29;3.53;;;2.80;;
54121;SDS011;40029;58.708;50.190;2023-04-29T04:33:00;3.92;;;2.50;;
54121;SDS011;40029;58.708;50.190;2023-04-29T04:35:32;6.00;;;2.80;;
54121;SDS011;40029;58.708;50.190;2023-04-29T04:38:03;3.58;;;2.83;;
54121;SDS011;40029;58.708;50.190;2023-04-29T04:40:35;8.00;;;2.90;;
54121;SDS011;40029;58.708;50.190;2023-04-29T04:43:23;3.40;;;2.42;;
54121;SDS011;40029;58.708;50.190;2023-04-29T04:45:55;2.33;;;2.13;;
54121;SDS011;40029;58.708;50.190;2023-04-29T04:48:26;2.15;;;1.95;;
54121;SDS011;40029;58.708;50.190;2023-04-29T04:50:58;5.72;;;2.47;;
54121;SDS011;40029;58.708;50.190;2023-04-29T04:53:30;2.88;;;2.42;;
54121;SDS011;40029;58.708;50.190;2023-04-29T04:56:09;6.05;;;2.13;;
54121;SDS011;40029;58.708;50.190;2023-04-29T04:58:41;4.30;;;2.67;;
54121;SDS011;40029;58.708;50.190;2023-04-29T05:01:31;4.35;;;2.58;;
54121;SDS011;40029;58.708;50.190;2023-04-29T05:04:02;12.07;;;2.45;;
54121;SDS011;40029;58.708;50.190;2023-04-29T05:06:35;6.78;;;3.30;;
54121;SDS011;40029;58.708;50.190;2023-04-29T05:09:07;5.32;;;3.08;;
54121;SDS011;40029;58.708;50.190;2023-04-29T05:11:56;4.20;;;3.35;;
54121;SDS011;40029;58.708;50.190;2023-04-29T05:14:30;11.50;;;3.35;;
54121;SDS011;40029;58.708;50.190;2023-04-29T05:17:01;3.47;;;2.50;;
54121;SDS011;40029;58.708;50.190;2023-04-29T05:19:32;4.78;;;2.30;;
54121;SDS011;40029;58.708;50.190;2023-04-29T05:22:04;3.67;;;2.25;;
54121;SDS011;40029;58.708;50.190;2023-04-29T05:24:53;3.20;;;2.30;;
54121;SDS011;40029;58.708;50.190;2023-04-29T05:27:30;3.05;;;1.95;;
54121;SDS011;40029;58.708;50.190;2023-04-29T05:30:01;3.65;;;2.50;;
54121;SDS011;40029;58.708;50.190;2023-04-29T05:32:35;2.65;;;2.30;;
54121;SDS011;40029;58.708;50.190;2023-04-29T05:35:08;2.72;;;1.80;;
54121;SDS011;40029;58.708;50.190;2023-04-29T05:37:39;4.63;;;2.10;;
54121;SDS011;40029;58.708;50.190;2023-04-29T05:40:29;3.40;;;2.00;;
54121;SDS011;40029;58.708;50.190;2023-04-29T05:43:16;3.65;;;2.30;;
54121;SDS011;40029;58.708;50.190;2023-04-29T05:45:47;3.67;;;2.00;;
54121;SDS011;40029;58.708;50.190;2023-04-29T05:48:19;2.45;;;2.22;;
54121;SDS011;40029;58.708;50.190;2023-04-29T05:50:50;3.35;;;2.50;;
54121;SDS011;40029;58.708;50.190;2023-04-29T05:53:22;3.20;;;2.90;;
54121;SDS011;40029;58.708;50.190;2023-04-29T05:56:11;2.67;;;1.80;;
54121;SDS011;40029;58.708;50.190;2023-04-29T05:58:44;4.18;;;2.22;;
54121;SDS011;40029;58.708;50.190;2023-04-29T06:01:15;3.53;;;2.17;;
54121;SDS011;40029;58.708;50.190;2023-04-29T06:03:47;5.90;;;2.33;;
54121;SDS011;40029;58.708;50.190;2023-04-29T06:06:36;4.75;;;2.65;;
54121;SDS011;40029;58.708;50.190;2023-04-29T06:09:30;4.85;;;2.88;;
54121;SDS011;40029;58.708;50.190;2023-04-29T06:12:06;5.32;;;2.47;;
54121;SDS011;40029;58.708;50.190;2023-04-29T06:14:37;10.73;;;2.70;;
54121;SDS011;40029;58.708;50.190;2023-04-29T06:17:08;4.88;;;2.55;;
54121;SDS011;40029;58.708;50.190;2023-04-29T06:19:39;2.85;;;2.25;;
54121;SDS011;40029;58.708;50.190;2023-04-29T06:22:13;2.67;;;2.25;;
54121;SDS011;40029;58.708;50.190;2023-04-29T06:24:50;2.22;;;1.98;;
54121;SDS011;40029;58.708;50.190;2023-04-29T06:27:43;3.28;;;1.80;;
54121;SDS011;40029;58.708;50.190;2023-04-29T06:30:15;4.45;;;2.03;;
54121;SDS011;40029;58.708;50.190;2023-04-29T06:32:46;3.63;;;2.17;;
54121;SDS011;40029;58.708;50.190;2023-04-29T06:35:17;5.80;;;2.40;;
54121;SDS011;40029;58.708;50.190;2023-04-29T06:38:14;3.22;;;2.58;;
54121;SDS011;40029;58.708;50.190;2023-04-29T06:40:46;3.60;;;2.55;;
54121;SDS011;40029;58.708;50.190;2023-04-29T06:43:43;2.45;;;2.10;;
54121;SDS011;40029;58.708;50.190;2023-04-29T06:46:32;5.57;;;2.53;;
54121;SDS011;40029;58.708;50.190;2023-04-29T06:49:20;7.13;;;2.20;;
54121;SDS011;40029;58.708;50.190;2023-04-29T06:51:52;15.13;;;7.20;;
54121;SDS011;40029;58.708;50.190;2023-04-29T06:54:24;2.42;;;2.08;;
54121;SDS011;40029;58.708;50.190;2023-04-29T06:56:57;15.55;;;2.78;;
54121;SDS011;40029;58.708;50.190;2023-04-29T06:59:28;3.50;;;2.63;;
54121;SDS011;40029;58.708;50.190;2023-04-29T07:01:59;4.07;;;2.40;;
54121;SDS011;40029;58.708;50.190;2023-04-29T07:04:30;7.22;;;2.75;;
54121;SDS011;40029;58.708;50.190;2023-04-29T07:07:20;4.95;;;3.33;;
54121;SDS011;40029;58.708;50.190;2023-04-29T07:09:51;4.05;;;2.90;;
54121;SDS011;40029;58.708;50.190;2023-04-29T07:12:24;6.45;;;3.67;;
54121;SDS011;40029;58.708;50.190;2023-04-29T07:14:58;8.93;;;2.80;;
54121;SDS011;40029;58.708;50.190;2023-04-29T07:17:29;7.05;;;2.20;;
54121;SDS011;40029;58.708;50.190;2023-04-29T07:20:01;4.32;;;2.45;;
54121;SDS011;40029;58.708;50.190;2023-04-29T07:22:34;4.38;;;2.58;;
54121;SDS011;40029;58.708;50.190;2023-04-29T07:25:06;5.80;;;2.35;;
54121;SDS011;40029;58.708;50.190;2023-04-29T07:27:38;8.02;;;2.40;;
54121;SDS011;40029;58.708;50.190;2023-04-29T07:30:09;5.50;;;2.10;;
54121;SDS011;40029;58.708;50.190;2023-04-29T07:32:40;3.97;;;2.45;;
54121;SDS011;40029;58.708;50.190;2023-04-29T07:35:12;3.33;;;2.55;;
54121;SDS011;40029;58.708;50.190;2023-04-29T07:37:43;4.22;;;2.28;;
54121;SDS011;40029;58.708;50.190;2023-04-29T07:40:15;3.35;;;2.13;;
54121;SDS011;40029;58.708;50.190;2023-04-29T07:42:47;8.25;;;3.88;;
54121;SDS011;40029;58.708;50.190;2023-04-29T07:45:18;4.88;;;2.80;;
54121;SDS011;40029;58.708;50.190;2023-04-29T07:47:49;3.60;;;2.65;;
54121;SDS011;40029;58.708;50.190;2023-04-29T07:50:21;5.82;;;2.97;;
54121;SDS011;40029;58.708;50.190;2023-04-29T07:52:52;8.30;;;3.78;;
54121;SDS011;40029;58.708;50.190;2023-04-29T07:55:24;3.65;;;2.53;;
54121;SDS011;40029;58.708;50.190;2023-04-29T07:57:57;10.00;;;2.70;;
54121;SDS011;40029;58.708;50.190;2023-04-29T08:00:28;3.60;;;1.90;;
54121;SDS011;40029;58.708;50.190;2023-04-29T08:02:59;5.78;;;2.85;;
54121;SDS011;40029;58.708;50.190;2023-04-29T08:05:31;4.80;;;2.33;;
54121;SDS011;40029;58.708;50.190;2023-04-29T08:08:03;4.65;;;2.60;;
54121;SDS011;40029;58.708;50.190;2023-04-29T08:10:36;7.07;;;3.08;;
54121;SDS011;40029;58.708;50.190;2023-04-29T08:13:13;8.40;;;2.65;;
54121;SDS011;40029;58.708;50.190;2023-04-29T08:16:02;5.72;;;2.70;;
54121;SDS011;40029;58.708;50.190;2023-04-29T08:18:33;2.40;;;2.20;;
54121;SDS011;40029;58.708;50.190;2023-04-29T08:21:06;5.45;;;2.65;;
54121;SDS011;40029;58.708;50.190;2023-04-29T08:23:38;7.50;;;2.60;;
54121;SDS011;40029;58.708;50.190;2023-04-29T08:26:09;4.22;;;2.40;;
54121;SDS011;40029;58.708;50.190;2023-04-29T08:28:42;14.93;;;3.03;;
54121;SDS011;40029;58.708;50.190;2023-04-29T08:31:20;8.48;;;2.45;;
54121;SDS011;40029;58.708;50.190;2023-04-29T08:33:51;2.75;;;2.20;;
54121;SDS011;40029;58.708;50.190;2023-04-29T08:36:23;2.75;;;2.05;;
54121;SDS011;40029;58.708;50.190;2023-04-29T08:38:55;4.40;;;2.55;;
54121;SDS011;40029;58.708;50.190;2023-04-29T08:41:26;9.65;;;2.85;;
54121;SDS011;40029;58.708;50.190;2023-04-29T08:43:58;2.45;;;1.95;;
54121;SDS011;40029;58.708;50.190;2023-04-29T08:46:48;3.47;;;2.25;;
54121;SDS011;40029;58.708;50.190;2023-04-29T08:49:20;2.35;;;2.15;;
54121;SDS011;40029;58.708;50.190;2023-04-29T08:51:51;2.72;;;2.10;;
54121;SDS011;40029;58.708;50.190;2023-04-29T08:54:23;8.10;;;2.40;;
54121;SDS011;40029;58.708;50.190;2023-04-29T08:56:54;6.45;;;2.55;;
54121;SDS011;40029;58.708;50.190;2023-04-29T08:59:27;11.57;;;5.07;;
54121;SDS011;40029;58.708;50.190;2023-04-29T09:01:59;3.50;;;2.55;;
54121;SDS011;40029;58.708;50.190;2023-04-29T09:04:39;7.95;;;2.25;;
54121;SDS011;40029;58.708;50.190;2023-04-29T09:07:17;6.93;;;2.53;;
54121;SDS011;40029;58.708;50.190;2023-04-29T09:09:48;4.65;;;2.63;;
54121;SDS011;40029;58.708;50.190;2023-04-29T09:12:41;13.00;;;2.72;;
54121;SDS011;40029;58.708;50.190;2023-04-29T09:15:12;5.10;;;2.53;;
54121;SDS011;40029;58.708;50.190;2023-04-29T09:17:44;5.85;;;2.17;;
54121;SDS011;40029;58.708;50.190;2023-04-29T09:22:58;10.70;;;2.88;;
54121;SDS011;40029;58.708;50.190;2023-04-29T09:25:31;9.25;;;3.50;;
54121;SDS011;40029;58.708;50.190;2023-04-29T09:28:13;2.50;;;2.10;;
54121;SDS011;40029;58.708;50.190;2023-04-29T09:30:45;11.75;;;2.67;;
54121;SDS011;40029;58.708;50.190;2023-04-29T09:33:17;8.50;;;2.70;;
54121;SDS011;40029;58.708;50.190;2023-04-29T09:35:48;11.23;;;2.92;;
54121;SDS011;40029;58.708;50.190;2023-04-29T09:38:19;2.63;;;1.90;;
54121;SDS011;40029;58.708;50.190;2023-04-29T09:40:51;14.93;;;2.90;;
54121;SDS011;40029;58.708;50.190;2023-04-29T09:43:23;15.10;;;2.63;;
54121;SDS011;40029;58.708;50.190;2023-04-29T09:45:54;4.40;;;2.30;;
54121;SDS011;40029;58.708;50.190;2023-04-29T09:48:43;3.50;;;2.28;;
54121;SDS011;40029;58.708;50.190;2023-04-29T09:51:14;17.52;;;3.90;;
54121;SDS011;40029;58.708;50.190;2023-04-29T09:53:45;3.08;;;1.85;;
54121;SDS011;40029;58.708;50.190;2023-04-29T09:56:16;5.22;;;2.38;;
54121;SDS011;40029;58.708;50.190;2023-04-29T09:58:48;3.83;;;2.25;;
54121;SDS011;40029;58.708;50.190;2023-04-29T10:01:19;8.23;;;2.03;;
54121;SDS011;40029;58.708;50.190;2023-04-29T10:03:52;3.30;;;1.92;;
54121;SDS011;40029;58.708;50.190;2023-04-29T10:06:25;3.72;;;2.10;;
54121;SDS011;40029;58.708;50.190;2023-04-29T10:08:56;5.18;;;2.85;;
54121;SDS011;40029;58.708;50.190;2023-04-29T10:11:27;9.80;;;2.08;;
54121;SDS011;40029;58.708;50.190;2023-04-29T10:13:59;3.00;;;2.05;;
54121;SDS011;40029;58.708;50.190;2023-04-29T10:16:49;9.63;;;2.70;;
54121;SDS011;40029;58.708;50.190;2023-04-29T10:19:34;3.83;;;2.15;;
54121;SDS011;40029;58.708;50.190;2023-04-29T10:22:31;2.58;;;1.80;;
54121;SDS011;40029;58.708;50.190;2023-04-29T10:25:06;6.72;;;1.95;;
54121;SDS011;40029;58.708;50.190;2023-04-29T10:27:42;6.85;;;2.25;;
54121;SDS011;40029;58.708;50.190;2023-04-29T10:30:18;10.38;;;3.35;;
54121;SDS011;40029;58.708;50.190;2023-04-29T10:32:51;2.45;;;2.05;;
54121;SDS011;40029;58.708;50.190;2023-04-29T10:35:23;13.77;;;2.80;;
54121;SDS011;40029;58.708;50.190;2023-04-29T10:37:55;6.72;;;2.33;;
54121;SDS011;40029;58.708;50.190;2023-04-29T10:40:35;6.55;;;4.00;;
54121;SDS011;40029;58.708;50.190;2023-04-29T10:43:12;5.15;;;2.47;;
54121;SDS011;40029;58.708;50.190;2023-04-29T10:45:44;9.05;;;2.25;;
54121;SDS011;40029;58.708;50.190;2023-04-29T10:48:34;2.78;;;1.73;;
54121;SDS011;40029;58.708;50.190;2023-04-29T10:51:05;4.45;;;2.40;;
54121;SDS011;40029;58.708;50.190;2023-04-29T10:56:35;7.80;;;2.47;;
54121;SDS011;40029;58.708;50.190;2023-04-29T10:59:11;15.05;;;3.05;;
54121;SDS011;40029;58.708;50.190;2023-04-29T11:01:44;5.80;;;4.90;;
54121;SDS011;40029;58.708;50.190;2023-04-29T11:04:16;3.80;;;3.17;;
54121;SDS011;40029;58.708;50.190;2023-04-29T11:06:53;6.82;;;2.40;;
54121;SDS011;40029;58.708;50.190;2023-04-29T11:09:26;10.05;;;2.47;;
54121;SDS011;40029;58.708;50.190;2023-04-29T11:12:02;10.20;;;2.67;;
54121;SDS011;40029;58.708;50.190;2023-04-29T11:14:42;6.75;;;2.20;;
54121;SDS011;40029;58.708;50.190;2023-04-29T11:17:19;6.15;;;1.95;;
54121;SDS011;40029;58.708;50.190;2023-04-29T11:19:50;4.93;;;2.22;;
54121;SDS011;40029;58.708;50.190;2023-04-29T11:22:26;4.45;;;2.42;;
54121;SDS011;40029;58.708;50.190;2023-04-29T11:27:39;3.33;;;2.25;;
54121;SDS011;40029;58.708;50.190;2023-04-29T11:30:12;11.30;;;2.55;;
54121;SDS011;40029;58.708;50.190;2023-04-29T11:32:43;5.28;;;2.53;;
54121;SDS011;40029;58.708;50.190;2023-04-29T11:35:15;4.25;;;1.83;;
54121;SDS011;40029;58.708;50.190;2023-04-29T11:37:49;5.72;;;2.22;;
54121;SDS011;40029;58.708;50.190;2023-04-29T11:40:20;2.22;;;1.98;;
54121;SDS011;40029;58.708;50.190;2023-04-29T11:42:52;10.55;;;3.90;;
54121;SDS011;40029;58.708;50.190;2023-04-29T11:45:23;11.55;;;2.17;;
54121;SDS011;40029;58.708;50.190;2023-04-29T11:48:22;5.32;;;2.30;;
54121;SDS011;40029;58.708;50.190;2023-04-29T11:50:58;5.55;;;2.92;;
54121;SDS011;40029;58.708;50.190;2023-04-29T11:53:29;3.13;;;2.45;;
54121;SDS011;40029;58.708;50.190;2023-04-29T11:56:01;5.97;;;2.50;;
54121;SDS011;40029;58.708;50.190;2023-04-29T11:58:32;5.90;;;2.33;;
54121;SDS011;40029;58.708;50.190;2023-04-29T12:01:03;9.38;;;2.50;;
54121;SDS011;40029;58.708;50.190;2023-04-29T12:03:56;3.47;;;2.10;;
54121;SDS011;40029;58.708;50.190;2023-04-29T12:06:50;4.20;;;2.35;;
54121;SDS011;40029;58.708;50.190;2023-04-29T12:09:22;3.13;;;2.10;;
54121;SDS011;40029;58.708;50.190;2023-04-29T12:12:13;10.00;;;2.53;;
54121;SDS011;40029;58.708;50.190;2023-04-29T12:14:45;6.07;;;3.90;;
54121;SDS011;40029;58.708;50.190;2023-04-29T12:17:16;3.33;;;2.35;;
54121;SDS011;40029;58.708;50.190;2023-04-29T12:19:48;5.80;;;2.25;;
54121;SDS011;40029;58.708;50.190;2023-04-29T12:22:20;6.25;;;2.75;;
54121;SDS011;40029;58.708;50.190;2023-04-29T12:24:51;6.63;;;2.97;;
54121;SDS011;40029;58.708;50.190;2023-04-29T12:27:42;11.05;;;2.50;;
54121;SDS011;40029;58.708;50.190;2023-04-29T12:30:13;12.70;;;2.75;;
54121;SDS011;40029;58.708;50.190;2023-04-29T12:32:44;3.58;;;2.08;;
54121;SDS011;40029;58.708;50.190;2023-04-29T12:35:18;5.22;;;2.58;;
54121;SDS011;40029;58.708;50.190;2023-04-29T12:37:49;14.85;;;3.53;;
54121;SDS011;40029;58.708;50.190;2023-04-29T12:40:21;15.05;;;3.08;;
54121;SDS011;40029;58.708;50.190;2023-04-29T12:42:53;4.97;;;2.80;;
54121;SDS011;40029;58.708;50.190;2023-04-29T12:45:33;6.72;;;3.25;;
54121;SDS011;40029;58.708;50.190;2023-04-29T12:48:04;6.95;;;3.50;;
54121;SDS011;40029;58.708;50.190;2023-04-29T12:50:36;4.55;;;2.50;;
54121;SDS011;40029;58.708;50.190;2023-04-29T12:53:08;5.82;;;2.53;;
54121;SDS011;40029;58.708;50.190;2023-04-29T12:55:39;3.88;;;2.95;;
54121;SDS011;40029;58.708;50.190;2023-04-29T12:58:11;19.25;;;3.40;;
54121;SDS011;40029;58.708;50.190;2023-04-29T13:00:42;3.95;;;3.50;;
54121;SDS011;40029;58.708;50.190;2023-04-29T13:03:13;5.15;;;3.85;;
54121;SDS011;40029;58.708;50.190;2023-04-29T13:05:44;3.15;;;2.80;;
54121;SDS011;40029;58.708;50.190;2023-04-29T13:08:18;3.72;;;3.30;;
54121;SDS011;40029;58.708;50.190;2023-04-29T13:10:49;3.78;;;2.40;;
54121;SDS011;40029;58.708;50.190;2023-04-29T13:13:21;3.67;;;2.30;;
54121;SDS011;40029;58.708;50.190;2023-04-29T13:15:52;4.85;;;2.88;;
54121;SDS011;40029;58.708;50.190;2023-04-29T13:18:23;17.25;;;3.95;;
54121;SDS011;40029;58.708;50.190;2023-04-29T13:21:13;3.72;;;2.55;;
54121;SDS011;40029;58.708;50.190;2023-04-29T13:23:44;6.07;;;2.90;;
54121;SDS011;40029;58.708;50.190;2023-04-29T13:26:15;3.05;;;2.47;;
54121;SDS011;40029;58.708;50.190;2023-04-29T13:28:47;4.75;;;3.33;;
54121;SDS011;40029;58.708;50.190;2023-04-29T13:31:19;6.70;;;2.92;;
54121;SDS011;40029;58.708;50.190;2023-04-29T13:33:50;8.90;;;3.60;;
54121;SDS011;40029;58.708;50.190;2023-04-29T13:36:22;4.03;;;2.25;;
54121;SDS011;40029;58.708;50.190;2023-04-29T13:38:53;8.85;;;3.10;;
54121;SDS011;40029;58.708;50.190;2023-04-29T13:41:25;2.90;;;2.70;;
54121;SDS011;40029;58.708;50.190;2023-04-29T13:43:56;21.08;;;3.83;;
54121;SDS011;40029;58.708;50.190;2023-04-29T13:46:28;3.38;;;2.40;;
54121;SDS011;40029;58.708;50.190;2023-04-29T13:48:59;9.38;;;3.58;;
54121;SDS011;40029;58.708;50.190;2023-04-29T13:51:30;5.93;;;2.70;;
54121;SDS011;40029;58.708;50.190;2023-04-29T13:54:02;11.80;;;3.38;;
54121;SDS011;40029;58.708;50.190;2023-04-29T13:56:33;4.40;;;2.65;;
54121;SDS011;40029;58.708;50.190;2023-04-29T13:59:04;10.77;;;2.50;;
54121;SDS011;40029;58.708;50.190;2023-04-29T14:01:35;10.63;;;3.22;;
54121;SDS011;40029;58.708;50.190;2023-04-29T14:04:07;4.95;;;2.55;;
54121;SDS011;40029;58.708;50.190;2023-04-29T14:06:38;5.03;;;3.15;;
54121;SDS011;40029;58.708;50.190;2023-04-29T14:09:09;6.50;;;2.60;;
54121;SDS011;40029;58.708;50.190;2023-04-29T14:11:41;5.47;;;3.17;;
54121;SDS011;40029;58.708;50.190;2023-04-29T14:14:12;8.60;;;3.25;;
54121;SDS011;40029;58.708;50.190;2023-04-29T14:16:43;7.30;;;3.60;;
54121;SDS011;40029;58.708;50.190;2023-04-29T14:19:33;5.93;;;2.95;;
54121;SDS011;40029;58.708;50.190;2023-04-29T14:22:04;8.77;;;2.33;;
54121;SDS011;40029;58.708;50.190;2023-04-29T14:24:35;8.07;;;3.03;;
54121;SDS011;40029;58.708;50.190;2023-04-29T14:27:27;4.38;;;2.63;;
54121;SDS011;40029;58.708;50.190;2023-04-29T14:29:58;6.63;;;3.70;;
54121;SDS011;40029;58.708;50.190;2023-04-29T14:32:29;6.10;;;3.90;;
54121;SDS011;40029;58.708;50.190;2023-04-29T14:35:00;3.33;;;3.00;;
54121;SDS011;40029;58.708;50.190;2023-04-29T14:37:32;6.38;;;3.00;;
54121;SDS011;40029;58.708;50.190;2023-04-29T14:40:03;6.55;;;3.90;;
54121;SDS011;40029;58.708;50.190;2023-04-29T14:42:36;7.78;;;3.10;;
54121;SDS011;40029;58.708;50.190;2023-04-29T14:45:26;5.63;;;4.30;;
54121;SDS011;40029;58.708;50.190;2023-04-29T14:48:16;10.00;;;3.78;;
54121;SDS011;40029;58.708;50.190;2023-04-29T14:50:47;23.05;;;4.80;;
54121;SDS011;40029;58.708;50.190;2023-04-29T14:53:18;10.70;;;4.88;;
54121;SDS011;40029;58.708;50.190;2023-04-29T14:55:51;13.00;;;5.10;;
54121;SDS011;40029;58.708;50.190;2023-04-29T14:58:22;8.93;;;5.57;;
54121;SDS011;40029;58.708;50.190;2023-04-29T15:01:11;8.15;;;5.28;;
54121;SDS011;40029;58.708;50.190;2023-04-29T15:03:43;10.65;;;4.85;;
54121;SDS011;40029;58.708;50.190;2023-04-29T15:06:14;12.77;;;3.47;;
54121;SDS011;40029;58.708;50.190;2023-04-29T15:08:45;6.78;;;3.08;;
54121;SDS011;40029;58.708;50.190;2023-04-29T15:11:34;7.65;;;3.38;;
54121;SDS011;40029;58.708;50.190;2023-04-29T15:14:24;5.55;;;2.95;;
54121;SDS011;40029;58.708;50.190;2023-04-29T15:16:55;10.20;;;2.92;;
54121;SDS011;40029;58.708;50.190;2023-04-29T15:19:26;7.90;;;3.30;;
54121;SDS011;40029;58.708;50.190;2023-04-29T15:21:57;7.10;;;3.25;;
54121;SDS011;40029;58.708;50.190;2023-04-29T15:24:28;4.38;;;3.45;;
54121;SDS011;40029;58.708;50.190;2023-04-29T15:26:59;15.40;;;4.78;;
54121;SDS011;40029;58.708;50.190;2023-04-29T15:29:50;12.30;;;4.47;;
54121;SDS011;40029;58.708;50.190;2023-04-29T15:32:23;13.60;;;3.88;;
54121;SDS011;40029;58.708;50.190;2023-04-29T15:35:01;9.25;;;3.38;;
54121;SDS011;40029;58.708;50.190;2023-04-29T15:37:51;5.72;;;3.63;;
54121;SDS011;40029;58.708;50.190;2023-04-29T15:40:41;12.05;;;4.43;;
54121;SDS011;40029;58.708;50.190;2023-04-29T15:43:31;21.63;;;4.63;;